Time;durP1;ratioP1;P1;durP2;ratioP2;P2;SDS_P1;SDS_P2;PMS_P1;PMS_P2;Temp;Humidity;BMP_temperature;BMP_pressure;BME280_temperature;BME280_humidity;BME280_pressure;Samples;Min_cycle;Max_cycle;Signal;HPM_P1;HPM_P2
2022/11/23 00:00:45;;;;;;;;;8.75;2.25;;;;;9.09;72.02;99341.44;5080240;27;45376;-65
2022/11/23 00:03:14;;;;;;;;;5.00;3.00;;;;;9.01;71.50;99327.88;5077724;27;45410;-64
2022/11/23 00:05:43;;;;;;;;;4.50;1.50;;;;;8.94;71.48;99340.69;5061351;27;46764;-65
2022/11/23 00:08:08;;;;;;;;;5.25;3.25;;;;;8.83;72.66;99333.47;5077166;27;46070;-63
2022/11/23 00:10:34;;;;;;;;;6.00;2.25;;;;;8.82;72.25;99336.25;5078020;27;45394;-61
2022/11/23 00:12:59;;;;;;;;;5.00;5.00;;;;;8.91;73.23;99348.03;5078330;27;45804;-60
2022/11/23 00:15:25;;;;;;;;;2.50;2.50;;;;;8.90;72.88;99343.69;5078679;27;45418;-62
2022/11/23 00:17:50;;;;;;;;;6.00;5.00;;;;;8.86;72.67;99338.59;5078775;27;46327;-59
2022/11/23 00:20:15;;;;;;;;;4.25;2.25;;;;;8.80;73.22;99332.84;5060033;27;45414;-60
2022/11/23 00:22:41;;;;;;;;;5.75;5.00;;;;;8.78;73.26;99340.91;5076762;27;45482;-60
2022/11/23 00:25:07;;;;;;;;;2.25;2.25;;;;;8.74;72.93;99330.63;5078549;27;45540;-59
2022/11/23 00:27:32;;;;;;;;;6.00;5.00;;;;;8.71;73.77;99339.63;5060690;28;46505;-61
2022/11/23 00:29:58;;;;;;;;;4.50;3.00;;;;;8.69;73.36;99346.81;5079124;28;45351;-63
2022/11/23 00:32:28;;;;;;;;;8.25;2.00;;;;;8.66;73.69;99338.25;5061735;28;45264;-62
2022/11/23 00:34:54;;;;;;;;;6.00;4.50;;;;;8.55;73.88;99342.47;5080158;28;45333;-60
2022/11/23 00:37:19;;;;;;;;;6.00;5.00;;;;;8.60;73.85;99347.47;5078458;27;46032;-62
2022/11/23 00:39:47;;;;;;;;;8.75;5.50;;;;;8.56;74.54;99343.31;5059322;28;45259;-63
2022/11/23 00:42:13;;;;;;;;;3.00;3.00;;;;;8.43;74.25;99314.16;5062258;28;45419;-64
2022/11/23 00:44:38;;;;;;;;;6.50;3.00;;;;;8.41;74.29;99334.59;5079250;28;45431;-61
2022/11/23 00:47:04;;;;;;;;;4.00;2.75;;;;;8.41;74.62;99336.41;5078948;28;46301;-60
2022/11/23 00:49:32;;;;;;;;;3.50;2.00;;;;;8.45;74.37;99340.53;5062119;28;45359;-59
2022/11/23 00:51:58;;;;;;;;;5.50;5.50;;;;;8.42;74.85;99346.91;5040566;28;45510;-60
2022/11/23 00:54:23;;;;;;;;;5.75;3.00;;;;;8.41;74.62;99347.00;5059847;28;45281;-62
2022/11/23 00:56:49;;;;;;;;;8.00;4.00;;;;;8.38;75.14;99331.31;5048841;28;45994;-61
2022/11/23 00:59:14;;;;;;;;;6.25;5.00;;;;;8.24;75.23;99317.16;5076516;27;45574;-63
2022/11/23 01:01:40;;;;;;;;;6.00;4.00;;;;;8.25;75.56;99326.81;5076229;27;45447;-61
2022/11/23 01:04:10;;;;;;;;;9.00;5.00;;;;;8.28;75.83;99326.59;5079019;27;45813;-62
2022/11/23 01:06:38;;;;;;;;;5.75;4.25;;;;;8.34;74.92;99335.09;5056395;28;47660;-60
2022/11/23 01:09:07;;;;;;;;;5.75;5.75;;;;;8.29;75.32;99323.00;5059004;27;45302;-59
2022/11/23 01:11:33;;;;;;;;;5.75;3.00;;;;;8.26;75.05;99312.59;5080697;27;45414;-60
2022/11/23 01:13:58;;;;;;;;;3.00;2.00;;;;;8.35;75.30;99332.38;5078485;27;45684;-61
2022/11/23 01:16:27;;;;;;;;;2.00;2.00;;;;;8.28;75.07;99318.66;5077904;27;45385;-63
2022/11/23 01:19:04;;;;;;;;;5.25;3.00;;;;;8.34;75.77;99330.69;5076985;27;45545;-62
2022/11/23 01:21:31;;;;;;;;;6.25;3.00;;;;;8.23;75.53;99301.38;5072517;27;45386;-62
2022/11/23 01:23:57;;;;;;;;;10.25;3.00;;;;;8.29;75.40;99315.03;5062040;28;45668;-59
2022/11/23 01:26:23;;;;;;;;;1.00;1.00;;;;;8.26;75.94;99304.66;5059922;27;46245;-59
2022/11/23 01:28:50;;;;;;;;;2.25;1.75;;;;;8.22;76.12;99300.53;5062091;27;45300;-62
2022/11/23 01:31:18;;;;;;;;;6.50;4.50;;;;;8.18;75.74;99299.00;5076607;27;45326;-61
2022/11/23 01:33:44;;;;;;;;;8.25;4.50;;;;;8.18;75.81;99287.56;5081802;27;45499;-62
2022/11/23 01:36:18;;;;;;;;;5.50;2.00;;;;;8.21;76.35;99293.53;5075316;27;45464;-62
2022/11/23 01:38:45;;;;;;;;;6.50;3.50;;;;;8.12;76.17;99280.91;5072392;27;45591;-64
2022/11/23 01:41:22;;;;;;;;;5.00;5.00;;;;;8.15;76.26;99288.63;5078947;27;45294;-66
2022/11/23 01:43:48;;;;;;;;;7.25;5.00;;;;;8.13;76.63;99285.25;5076414;27;45227;-63
2022/11/23 01:46:14;;;;;;;;;9.25;4.75;;;;;8.05;76.55;99265.50;5058310;28;46841;-62
2022/11/23 01:48:48;;;;;;;;;5.00;5.00;;;;;8.09;76.16;99283.75;5077331;27;46019;-64
2022/11/23 01:51:25;;;;;;;;;7.00;5.50;;;;;8.07;76.61;99279.50;5060695;27;45312;-62
2022/11/23 01:53:59;;;;;;;;;8.75;5.25;;;;;8.06;77.11;99283.09;5077804;27;45464;-64
2022/11/23 01:56:29;;;;;;;;;5.00;5.00;;;;;8.01;76.55;99280.75;5061667;27;45441;-62
2022/11/23 01:58:58;;;;;;;;;6.75;5.00;;;;;8.03;76.67;99262.97;5078654;27;45537;-61
2022/11/23 02:01:24;;;;;;;;;6.00;2.00;;;;;7.99;76.85;99272.09;5065898;27;45402;-63
2022/11/23 02:03:50;;;;;;;;;5.25;5.25;;;;;7.91;77.36;99263.78;5077700;27;45169;-61
2022/11/23 02:06:18;;;;;;;;;6.00;5.50;;;;;7.95;78.22;99282.03;5058619;28;46447;-61
2022/11/23 02:08:46;;;;;;;;;8.00;5.50;;;;;7.87;77.54;99263.16;5076178;27;46667;-61
2022/11/23 02:11:15;;;;;;;;;5.00;5.00;;;;;7.85;77.33;99261.56;5077507;27;45411;-61
2022/11/23 02:13:43;;;;;;;;;5.00;4.50;;;;;7.83;77.75;99256.38;5059274;28;45525;-63
2022/11/23 02:16:10;;;;;;;;;3.50;2.00;;;;;7.84;78.20;99265.16;5077333;27;46561;-65
2022/11/23 02:18:37;;;;;;;;;7.00;5.00;;;;;7.84;78.06;99265.16;5076931;27;46130;-60
2022/11/23 02:21:04;;;;;;;;;5.75;3.25;;;;;7.85;78.80;99266.84;5078799;27;45405;-63
2022/11/23 02:23:44;;;;;;;;;9.75;6.25;;;;;7.83;78.34;99260.81;5093606;27;45709;-61
2022/11/23 02:26:32;;;;;;;;;9.00;5.00;;;;;7.78;78.31;99262.91;5068595;27;45548;-60
2022/11/23 02:29:19;;;;;;;;;6.25;5.50;;;;;7.78;79.14;99265.53;5052952;28;45329;-62
2022/11/23 02:31:45;;;;;;;;;8.50;3.50;;;;;7.75;78.64;99265.75;5074747;28;45524;-61
2022/11/23 02:34:10;;;;;;;;;9.00;5.25;;;;;7.73;79.29;99259.72;5077627;27;45560;-60
2022/11/23 02:36:50;;;;;;;;;6.25;5.00;;;;;7.72;79.36;99265.97;5074984;27;49065;-61
2022/11/23 02:39:27;;;;;;;;;3.50;3.50;;;;;7.74;79.44;99256.13;5077123;28;45566;-64
2022/11/23 02:41:54;;;;;;;;;5.50;4.25;;;;;7.75;79.79;99260.47;5076908;27;45490;-61
2022/11/23 02:44:50;;;;;;;;;6.25;4.75;;;;;7.71;79.39;99256.31;5077869;27;45439;-60
2022/11/23 02:47:16;;;;;;;;;9.00;6.75;;;;;7.70;79.55;99244.91;5081700;27;46364;-61
2022/11/23 02:49:45;;;;;;;;;9.00;6.00;;;;;7.66;80.16;99243.38;5097108;27;45374;-61
2022/11/23 02:52:11;;;;;;;;;7.50;7.50;;;;;7.69;80.08;99241.41;5075625;27;45882;-64
2022/11/23 02:54:37;;;;;;;;;5.75;4.50;;;;;7.71;79.80;99233.34;5066858;27;45320;-61
2022/11/23 02:57:05;;;;;;;;;9.00;6.00;;;;;7.74;79.36;99240.25;5088644;27;45235;-64
2022/11/23 02:59:33;;;;;;;;;6.00;3.75;;;;;7.74;79.71;99234.94;5076371;27;45411;-63
2022/11/23 03:02:00;;;;;;;;;8.50;5.00;;;;;7.77;79.98;99237.38;5075376;27;45465;-61
2022/11/23 03:04:26;;;;;;;;;9.50;5.50;;;;;7.78;80.14;99236.44;5074602;27;45555;-60
2022/11/23 03:06:52;;;;;;;;;5.00;5.00;;;;;7.78;79.96;99225.84;5059506;27;45990;-61
2022/11/23 03:09:17;;;;;;;;;7.75;7.75;;;;;7.80;79.67;99223.94;5074848;27;45427;-61
2022/11/23 03:11:42;;;;;;;;;8.75;6.00;;;;;7.74;79.41;99211.13;5058838;28;45790;-59
2022/11/23 03:14:08;;;;;;;;;6.75;5.50;;;;;7.82;79.98;99222.06;5076541;27;45253;-60
2022/11/23 03:16:33;;;;;;;;;9.00;7.25;;;;;7.83;79.98;99215.81;5075302;27;46052;-61
2022/11/23 03:18:59;;;;;;;;;9.50;7.25;;;;;7.83;79.94;99218.47;5079510;27;45773;-61
2022/11/23 03:21:25;;;;;;;;;7.00;6.00;;;;;7.89;79.70;99207.47;5058421;27;45251;-66
2022/11/23 03:23:53;;;;;;;;;7.25;7.25;;;;;7.86;79.73;99197.09;5077254;27;45634;-63
2022/11/23 03:26:19;;;;;;;;;14.00;7.25;;;;;7.88;79.80;99195.19;5076954;27;46113;-64
2022/11/23 03:28:44;;;;;;;;;8.00;6.00;;;;;7.84;79.58;99193.69;5077377;27;45584;-60
2022/11/23 03:31:10;;;;;;;;;7.25;7.25;;;;;7.89;79.78;99202.16;5076145;27;45451;-64
2022/11/23 03:33:36;;;;;;;;;9.00;9.00;;;;;7.77;79.68;99182.66;5077791;27;45442;-62
2022/11/23 03:36:01;;;;;;;;;6.00;6.00;;;;;7.78;80.25;99192.28;5075684;27;45514;-64
2022/11/23 03:38:30;;;;;;;;;10.75;9.25;;;;;7.83;80.04;99192.00;5075709;27;45465;-62
2022/11/23 03:40:58;;;;;;;;;7.25;7.25;;;;;7.89;80.46;99194.22;5064469;27;45489;-61
2022/11/23 03:43:24;;;;;;;;;14.50;6.00;;;;;7.88;80.31;99196.03;5078976;27;45306;-62
2022/11/23 03:45:49;;;;;;;;;8.75;6.00;;;;;7.91;80.28;99195.81;5076359;28;45379;-65
2022/11/23 03:48:15;;;;;;;;;5.25;4.00;;;;;7.93;79.89;99182.47;5057210;28;45482;-62
2022/11/23 03:50:40;;;;;;;;;8.25;7.00;;;;;7.96;79.98;99182.28;5073342;27;46896;-62
2022/11/23 03:53:06;;;;;;;;;7.00;7.00;;;;;7.97;80.19;99183.97;5057964;28;45418;-62
2022/11/23 03:55:36;;;;;;;;;7.25;7.25;;;;;7.91;80.52;99179.06;5075517;27;45347;-62
2022/11/23 03:58:01;;;;;;;;;9.00;7.25;;;;;7.94;80.33;99189.44;5077358;27;45346;-64
2022/11/23 04:00:29;;;;;;;;;9.25;6.50;;;;;7.94;80.17;99190.34;5056225;28;45253;-63
2022/11/23 04:02:55;;;;;;;;;10.00;7.75;;;;;7.99;80.46;99176.78;5074859;27;45493;-61
2022/11/23 04:05:21;;;;;;;;;8.00;8.00;;;;;7.99;80.38;99179.41;5072629;27;45453;-61
2022/11/23 04:07:47;;;;;;;;;5.75;5.75;;;;;8.02;80.22;99176.56;5074938;27;45604;-59
2022/11/23 04:10:14;;;;;;;;;11.75;9.00;;;;;7.99;80.60;99160.88;5077369;27;45471;-63
2022/11/23 04:12:40;;;;;;;;;8.00;6.00;;;;;8.07;80.25;99169.13;5075755;27;45367;-61
2022/11/23 04:15:06;;;;;;;;;9.50;6.25;;;;;8.02;80.88;99165.13;5077307;27;46257;-62
2022/11/23 04:17:31;;;;;;;;;6.50;6.50;;;;;7.99;81.07;99171.47;5059937;27;45425;-61
2022/11/23 04:19:57;;;;;;;;;7.25;7.25;;;;;7.96;81.41;99163.75;5078740;27;45421;-62
2022/11/23 04:22:24;;;;;;;;;6.75;6.00;;;;;8.03;81.19;99165.00;5061681;27;45515;-60
2022/11/23 04:24:50;;;;;;;;;9.00;7.25;;;;;7.98;81.99;99169.78;5074851;27;45449;-60
2022/11/23 04:27:16;;;;;;;;;14.25;6.50;;;;;8.00;81.16;99167.88;5078427;28;46567;-60
2022/11/23 04:29:41;;;;;;;;;13.00;10.00;;;;;8.04;81.02;99174.66;5078234;27;45501;-65
2022/11/23 04:32:10;;;;;;;;;8.00;8.00;;;;;8.03;81.24;99172.97;5067479;28;45762;-64
2022/11/23 04:34:35;;;;;;;;;8.75;6.75;;;;;7.98;81.75;99169.78;5041370;28;47263;-65
2022/11/23 04:37:00;;;;;;;;;9.00;8.00;;;;;7.93;81.90;99145.41;5068527;27;45271;-62
2022/11/23 04:39:26;;;;;;;;;8.75;6.00;;;;;8.05;81.76;99156.97;5078927;28;45724;-64
2022/11/23 04:41:51;;;;;;;;;5.75;3.25;;;;;8.07;81.96;99155.91;5094872;27;45374;-65
2022/11/23 04:44:20;;;;;;;;;9.00;9.00;;;;;7.96;82.05;99127.53;5078463;28;45795;-64
2022/11/23 04:46:49;;;;;;;;;9.75;9.50;;;;;8.00;81.37;99130.81;5067634;27;45458;-61
2022/11/23 04:49:14;;;;;;;;;9.50;6.50;;;;;8.14;81.60;99148.41;5078706;28;45345;-61
2022/11/23 04:51:40;;;;;;;;;9.50;7.00;;;;;8.14;81.41;99149.25;5060442;28;45433;-60
2022/11/23 04:54:05;;;;;;;;;9.00;7.25;;;;;8.10;82.17;99139.81;5078609;28;46396;-64
2022/11/23 04:56:34;;;;;;;;;8.75;3.25;;;;;8.14;82.64;99143.09;5078720;28;45433;-63
2022/11/23 04:59:02;;;;;;;;;9.75;8.00;;;;;8.10;82.33;99145.13;5068650;27;45429;-62
2022/11/23 05:01:28;;;;;;;;;9.00;7.00;;;;;8.09;83.24;99143.44;5078192;27;45383;-65
2022/11/23 05:03:53;;;;;;;;;13.75;9.00;;;;;8.08;82.28;99138.25;5059708;27;45290;-63
2022/11/23 05:06:19;;;;;;;;;9.25;7.00;;;;;8.11;82.92;99136.22;5069857;27;45420;-65
2022/11/23 05:08:44;;;;;;;;;11.00;6.00;;;;;8.11;82.23;99133.56;5064330;27;45375;-61
2022/11/23 05:11:10;;;;;;;;;10.25;7.50;;;;;7.96;82.39;99116.09;5062047;27;45674;-61
2022/11/23 05:13:35;;;;;;;;;5.50;5.50;;;;;8.05;83.29;99130.47;5078286;27;45358;-64
2022/11/23 05:16:01;;;;;;;;;8.50;6.50;;;;;8.05;83.10;99131.31;5085104;27;45364;-61
2022/11/23 05:18:26;;;;;;;;;8.25;6.75;;;;;8.01;83.22;99136.94;5060045;28;45485;-62
2022/11/23 05:20:52;;;;;;;;;16.75;16.25;;;;;8.02;83.12;99134.19;5066157;27;45527;-66
2022/11/23 05:23:17;;;;;;;;;7.50;7.50;;;;;8.06;82.91;99134.81;5066391;28;46476;-63
2022/11/23 05:25:43;;;;;;;;;5.25;4.75;;;;;8.03;83.77;99135.88;5064021;27;45384;-61
2022/11/23 05:28:17;;;;;;;;;5.75;5.75;;;;;8.03;83.40;99130.59;5081293;27;45344;-63
2022/11/23 05:30:43;;;;;;;;;4.75;3.25;;;;;8.05;83.28;99152.50;5078617;27;45539;-64
2022/11/23 05:33:08;;;;;;;;;5.50;5.00;;;;;8.03;83.78;99135.88;5080923;27;46257;-63
2022/11/23 05:35:37;;;;;;;;;5.75;5.75;;;;;8.03;83.72;99141.19;5079207;27;45418;-63
2022/11/23 05:38:03;;;;;;;;;13.25;9.25;;;;;8.01;84.76;99143.09;5078264;27;45512;-60
2022/11/23 05:40:29;;;;;;;;;7.75;6.75;;;;;7.96;84.37;99124.03;5076776;27;45456;-66
2022/11/23 05:42:55;;;;;;;;;6.00;4.00;;;;;8.03;84.23;99127.94;5082665;27;46129;-61
2022/11/23 05:45:21;;;;;;;;;6.00;4.50;;;;;8.11;83.76;99138.03;5078254;27;45222;-62
2022/11/23 05:47:55;;;;;;;;;10.00;6.00;;;;;8.09;83.57;99139.94;5058621;28;45772;-62
2022/11/23 05:50:21;;;;;;;;;5.50;5.50;;;;;8.06;84.50;99130.38;5078617;27;45597;-63
2022/11/23 05:52:47;;;;;;;;;11.75;5.75;;;;;8.15;83.85;99136.84;5079578;27;46553;-61
2022/11/23 05:55:16;;;;;;;;;2.00;2.00;;;;;8.20;84.38;99132.06;5077366;27;45305;-65
2022/11/23 05:57:41;;;;;;;;;5.00;5.00;;;;;8.23;83.63;99127.44;5049069;28;45568;-61
2022/11/23 06:00:10;;;;;;;;;2.75;2.25;;;;;8.29;83.14;99137.56;5074759;27;45473;-65
2022/11/23 06:02:36;;;;;;;;;9.50;8.00;;;;;8.27;83.27;99120.94;5071128;27;46245;-61
2022/11/23 06:05:02;;;;;;;;;5.00;5.00;;;;;8.36;83.40;99119.50;5094685;27;45313;-65
2022/11/23 06:07:28;;;;;;;;;5.50;5.50;;;;;8.38;83.33;99104.34;5078316;27;45406;-62
2022/11/23 06:09:53;;;;;;;;;6.00;6.00;;;;;8.44;83.25;99111.00;5078644;27;45502;-60
2022/11/23 06:12:19;;;;;;;;;6.25;6.25;;;;;8.43;82.91;99112.81;5056747;27;46361;-61
2022/11/23 06:14:44;;;;;;;;;9.75;8.00;;;;;8.46;82.74;99117.91;5078760;27;45534;-61
2022/11/23 06:17:10;;;;;;;;;9.25;9.25;;;;;8.41;83.46;99097.97;5076283;27;45591;-60
2022/11/23 06:19:38;;;;;;;;;12.75;7.50;;;;;8.52;83.55;99108.66;5039500;28;45337;-61
2022/11/23 06:22:03;;;;;;;;;10.00;5.75;;;;;8.57;82.18;99120.63;5096066;27;47190;-60
2022/11/23 06:24:29;;;;;;;;;5.50;5.50;;;;;8.62;82.94;99122.97;5071617;27;45322;-60
2022/11/23 06:26:55;;;;;;;;;7.00;3.00;;;;;8.62;82.25;99107.06;5076236;28;45346;-59
2022/11/23 06:29:20;;;;;;;;;13.00;9.25;;;;;8.68;82.30;99111.06;5076255;28;45594;-59
2022/11/23 06:31:46;;;;;;;;;9.00;6.25;;;;;8.70;82.96;99109.97;5058697;28;46255;-59
2022/11/23 06:34:12;;;;;;;;;12.00;10.00;;;;;8.69;81.95;99096.84;5042458;28;45349;-60
2022/11/23 06:36:37;;;;;;;;;9.50;7.25;;;;;8.76;82.72;99095.47;5062724;28;45423;-59
2022/11/23 06:39:03;;;;;;;;;7.00;7.00;;;;;8.75;81.95;99097.25;5076836;28;45426;-61
2022/11/23 06:41:29;;;;;;;;;7.75;7.50;;;;;8.76;82.51;99080.41;5074413;28;46650;-61
2022/11/23 06:43:55;;;;;;;;;10.75;7.50;;;;;8.86;82.14;99081.44;5066950;28;45425;-62
2022/11/23 06:46:20;;;;;;;;;7.25;5.25;;;;;8.93;82.02;99083.63;5056594;28;45835;-59
2022/11/23 06:48:46;;;;;;;;;7.25;7.25;;;;;8.93;82.34;99083.63;5069497;27;45401;-62
2022/11/23 06:51:12;;;;;;;;;9.50;6.25;;;;;8.95;81.29;99073.75;5077388;27;45506;-62
2022/11/23 06:53:38;;;;;;;;;9.50;6.00;;;;;9.00;81.18;99072.47;5075776;27;45437;-59
2022/11/23 06:56:04;;;;;;;;;6.00;6.00;;;;;9.00;80.99;99061.84;5076181;28;46844;-60
2022/11/23 06:58:30;;;;;;;;;6.50;4.25;;;;;9.01;80.46;99062.69;5072500;27;45601;-63
2022/11/23 07:01:04;;;;;;;;;6.25;6.00;;;;;9.07;80.80;99064.88;5072318;27;45334;-57
2022/11/23 07:03:29;;;;;;;;;7.00;5.00;;;;;9.09;80.56;99065.63;5075229;28;45424;-65
2022/11/23 07:05:55;;;;;;;;;9.00;6.25;;;;;9.13;80.43;99059.16;5056753;27;45403;-59
2022/11/23 07:08:21;;;;;;;;;6.25;6.00;;;;;9.05;80.01;99048.25;5073016;28;45486;-64
2022/11/23 07:10:46;;;;;;;;;8.50;5.00;;;;;9.13;80.02;99059.16;5074733;27;45690;-62
2022/11/23 07:13:13;;;;;;;;;8.75;6.00;;;;;9.10;80.22;99054.03;5076839;28;45707;-60
2022/11/23 07:15:39;;;;;;;;;7.75;6.00;;;;;9.18;79.84;99061.44;5071118;28;45312;-61
2022/11/23 07:18:05;;;;;;;;;8.75;5.25;;;;;9.17;80.07;99063.25;5071201;27;45445;-61
2022/11/23 07:20:30;;;;;;;;;6.75;6.75;;;;;9.16;79.85;99070.38;5057343;27;46278;-61
2022/11/23 07:23:05;;;;;;;;;11.25;6.75;;;;;9.17;79.49;99063.25;5078349;27;45412;-60
2022/11/23 07:25:32;;;;;;;;;10.00;7.00;;;;;9.11;79.57;99061.03;5057315;28;45355;-60
2022/11/23 07:27:59;;;;;;;;;7.25;6.00;;;;;9.16;78.91;99066.88;5050991;28;45473;-61
2022/11/23 07:30:26;;;;;;;;;11.00;7.50;;;;;9.19;78.91;99057.81;5074763;27;45316;-62
2022/11/23 07:32:52;;;;;;;;;11.50;7.25;;;;;9.22;78.63;99077.00;5076149;28;45309;-61
2022/11/23 07:35:18;;;;;;;;;7.00;7.00;;;;;9.22;78.25;99069.03;5076432;28;45479;-61
2022/11/23 07:37:44;;;;;;;;;14.25;6.75;;;;;9.22;77.93;99070.84;5073549;27;45517;-61
2022/11/23 07:40:10;;;;;;;;;9.00;8.00;;;;;9.30;77.30;99076.44;5066711;28;45434;-63
2022/11/23 07:42:36;;;;;;;;;6.25;6.00;;;;;9.26;78.15;99067.88;5070598;27;45608;-64
2022/11/23 07:45:03;;;;;;;;;5.50;5.50;;;;;9.33;77.72;99077.06;5067153;28;45466;-63
2022/11/23 07:47:28;;;;;;;;;4.50;4.50;;;;;9.35;77.47;99072.47;5066271;28;45395;-60
2022/11/23 07:49:54;;;;;;;;;5.50;5.00;;;;;9.34;77.16;99080.56;5068036;27;45563;-61
2022/11/23 07:52:19;;;;;;;;;3.00;3.00;;;;;9.28;76.54;99068.59;5079106;27;45753;-61
2022/11/23 07:54:45;;;;;;;;;3.50;3.00;;;;;9.36;77.12;99071.50;5079939;28;45445;-61
2022/11/23 07:57:10;;;;;;;;;7.75;5.00;;;;;9.40;77.33;99074.81;5067635;27;45629;-61
2022/11/23 07:59:36;;;;;;;;;2.25;2.25;;;;;9.41;77.00;99069.38;5079484;27;45733;-63
2022/11/23 08:02:01;;;;;;;;;2.75;2.75;;;;;9.41;77.49;99077.34;5091700;27;45469;-61
2022/11/23 08:04:28;;;;;;;;;6.25;1.75;;;;;9.28;76.78;99068.59;5075342;28;45312;-59
2022/11/23 08:06:54;;;;;;;;;7.00;3.50;;;;;9.29;78.40;99075.59;5072804;27;45541;-60
2022/11/23 08:09:19;;;;;;;;;3.00;3.00;;;;;9.29;77.79;99074.75;5075119;27;47210;-60
2022/11/23 08:11:45;;;;;;;;;4.00;4.00;;;;;9.23;78.37;99060.13;5077849;28;45652;-63
2022/11/23 08:14:10;;;;;;;;;4.50;2.25;;;;;9.29;78.17;99072.94;5068657;27;45428;-63
2022/11/23 08:16:36;;;;;;;;;4.50;2.50;;;;;9.24;77.90;99067.13;5059301;28;45475;-62
2022/11/23 08:19:01;;;;;;;;;5.50;2.00;;;;;9.26;78.67;99067.03;5065045;27;46252;-66
2022/11/23 08:21:26;;;;;;;;;6.25;4.00;;;;;9.26;78.90;99062.56;5065768;27;45467;-61
2022/11/23 08:23:52;;;;;;;;;6.00;3.00;;;;;9.21;78.72;99062.06;5062675;28;45438;-61
2022/11/23 08:26:17;;;;;;;;;2.50;2.50;;;;;9.20;79.53;99054.22;5084681;27;45604;-62
2022/11/23 08:28:43;;;;;;;;;3.50;3.00;;;;;9.23;78.81;99049.50;5074974;27;46192;-62
2022/11/23 08:31:13;;;;;;;;;4.50;4.50;;;;;9.27;79.14;99044.84;5076499;27;45548;-60
2022/11/23 08:33:40;;;;;;;;;3.00;3.00;;;;;9.28;78.58;99043.88;5072430;27;45500;-63
2022/11/23 08:36:07;;;;;;;;;2.00;2.00;;;;;9.18;79.03;99013.69;5057789;27;45598;-66
2022/11/23 08:38:33;;;;;;;;;6.50;4.00;;;;;9.28;78.31;99026.16;5065615;28;46146;-62
2022/11/23 08:41:00;;;;;;;;;5.25;2.00;;;;;9.15;78.09;99001.53;5059583;27;45398;-63
2022/11/23 08:43:26;;;;;;;;;4.75;3.00;;;;;9.37;78.99;99030.75;5085650;27;45395;-64
2022/11/23 08:45:56;;;;;;;;;3.75;3.50;;;;;9.36;78.38;99021.09;5069332;28;45810;-63
2022/11/23 08:48:21;;;;;;;;;3.00;3.00;;;;;9.31;77.48;98999.38;5074952;28;45632;-64
2022/11/23 08:50:47;;;;;;;;;3.00;3.00;;;;;9.42;77.27;99001.22;5053764;27;45631;-64
2022/11/23 08:53:12;;;;;;;;;7.25;3.00;;;;;9.46;77.58;98976.13;5069689;27;45575;-69
2022/11/23 08:55:38;;;;;;;;;7.25;5.00;;;;;9.50;77.80;98971.44;5070008;27;45470;-65
2022/11/23 08:58:03;;;;;;;;;4.50;3.00;;;;;9.44;76.70;98965.66;5049999;28;46038;-65
2022/11/23 09:00:29;;;;;;;;;2.50;2.50;;;;;9.46;77.38;98981.44;5068697;27;45495;-61
2022/11/23 09:02:57;;;;;;;;;4.00;2.00;;;;;9.50;77.10;98997.97;5072282;27;45548;-62
2022/11/23 09:05:23;;;;;;;;;6.00;3.00;;;;;9.50;77.55;98990.00;5073699;27;45533;-61
2022/11/23 09:07:49;;;;;;;;;6.00;3.00;;;;;9.48;77.92;98976.03;5050225;28;46977;-61
2022/11/23 09:10:16;;;;;;;;;3.00;3.00;;;;;9.53;77.56;98981.84;5065336;27;45766;-64
2022/11/23 09:12:41;;;;;;;;;4.50;4.00;;;;;9.53;78.69;98976.53;5075281;28;45466;-64
2022/11/23 09:15:07;;;;;;;;;7.50;4.50;;;;;9.45;79.80;98969.16;5068891;27;45664;-61
2022/11/23 09:17:33;;;;;;;;;3.75;3.00;;;;;9.45;80.41;98974.44;5075405;27;46213;-62
2022/11/23 09:19:58;;;;;;;;;7.25;6.00;;;;;9.36;80.50;98964.53;5045722;28;45532;-61
2022/11/23 09:22:25;;;;;;;;;4.50;4.50;;;;;9.32;80.74;98969.25;5068904;27;45385;-62
2022/11/23 09:24:51;;;;;;;;;4.50;2.50;;;;;9.30;80.98;98971.19;5065237;27;45460;-63
2022/11/23 09:27:17;;;;;;;;;5.75;4.00;;;;;9.25;82.41;98959.25;5068460;27;45501;-63
2022/11/23 09:29:42;;;;;;;;;3.00;3.00;;;;;9.16;81.85;98952.81;5073859;27;45538;-62
2022/11/23 09:32:07;;;;;;;;;2.25;2.25;;;;;9.16;82.17;98958.13;5071119;27;45514;-63
2022/11/23 09:34:33;;;;;;;;;5.00;5.00;;;;;9.21;83.16;98955.94;5075522;27;45262;-62
2022/11/23 09:36:58;;;;;;;;;5.75;3.00;;;;;9.19;82.52;98962.34;5071439;27;46133;-62
2022/11/23 09:39:24;;;;;;;;;2.25;2.25;;;;;9.09;84.41;98946.28;5070023;27;45925;-62
2022/11/23 09:42:10;;;;;;;;;6.50;5.25;;;;;9.13;83.61;98951.25;5060747;28;45387;-62
2022/11/23 09:44:51;;;;;;;;;6.00;3.00;;;;;9.13;83.44;98948.59;5060207;27;45386;-62
2022/11/23 09:47:50;;;;;;;;;4.25;3.00;;;;;9.15;84.66;98945.81;5061457;27;45370;-62
2022/11/23 09:50:47;;;;;;;;;2.75;2.75;;;;;9.09;84.30;98938.31;5074375;27;45500;-63
2022/11/23 09:53:20;;;;;;;;;3.00;3.00;;;;;9.10;84.12;98945.31;5068051;27;45439;-61
2022/11/23 09:55:49;;;;;;;;;5.00;2.00;;;;;9.12;85.61;98946.06;5062580;27;45485;-60
2022/11/23 09:58:18;;;;;;;;;6.50;5.00;;;;;9.06;85.04;98942.06;5067523;27;45327;-62
2022/11/23 10:00:56;;;;;;;;;3.50;2.50;;;;;9.00;85.01;98931.94;5045943;28;45534;-66
2022/11/23 10:03:21;;;;;;;;;4.50;4.50;;;;;9.05;85.83;98934.22;5066334;27;45370;-61
2022/11/23 10:06:17;;;;;;;;;4.00;2.00;;;;;9.03;85.91;98938.81;5057262;28;45488;-59
2022/11/23 10:09:08;;;;;;;;;4.50;2.25;;;;;9.02;86.73;98934.47;5074774;27;46572;-63
2022/11/23 10:11:52;;;;;;;;;4.25;2.00;;;;;8.96;87.29;98932.25;5075771;27;45271;-62
2022/11/23 10:14:42;;;;;;;;;4.50;2.75;;;;;8.96;87.63;98929.59;5057983;28;45321;-60
2022/11/23 10:17:17;;;;;;;;;3.00;3.00;;;;;8.94;87.43;98928.88;5076297;27;45294;-66
2022/11/23 10:19:59;;;;;;;;;3.50;2.00;;;;;8.94;87.74;98942.97;5057844;28;46542;-65
2022/11/23 10:22:37;;;;;;;;;2.50;2.50;;;;;8.90;88.44;98952.13;5050059;27;45343;-60
2022/11/23 10:25:14;;;;;;;;;5.75;3.00;;;;;8.90;88.28;98951.28;5074119;27;45521;-62
2022/11/23 10:27:41;;;;;;;;;5.25;5.25;;;;;8.90;89.58;98946.84;5056819;27;46032;-63
2022/11/23 10:30:17;;;;;;;;;5.00;5.00;;;;;8.86;89.33;98946.22;5074596;27;45468;-65
2022/11/23 10:32:52;;;;;;;;;5.00;5.00;;;;;8.84;90.00;98949.94;5043882;28;45500;-64
2022/11/23 10:35:32;;;;;;;;;5.75;3.00;;;;;8.87;92.65;98957.69;5068809;28;45355;-64
2022/11/23 10:38:19;;;;;;;;;3.00;3.00;;;;;8.74;92.44;98947.16;5073272;27;45801;-59
2022/11/23 10:41:09;;;;;;;;;5.25;4.50;;;;;8.80;91.94;98982.94;5054529;28;45288;-63
2022/11/23 10:43:44;;;;;;;;;1.00;1.00;;;;;8.83;91.04;98980.91;5046281;27;45430;-65
2022/11/23 10:46:34;;;;;;;;;5.00;3.00;;;;;8.85;91.62;98983.44;5071633;27;45525;-65
2022/11/23 10:49:17;;;;;;;;;2.50;2.50;;;;;8.80;91.51;98983.78;5064514;27;45450;-64
2022/11/23 10:51:52;;;;;;;;;1.25;1.25;;;;;8.83;91.63;98983.53;5051309;27;45720;-59
2022/11/23 10:54:26;;;;;;;;;3.00;3.00;;;;;8.81;91.34;98977.53;5069562;27;46902;-60
2022/11/23 10:56:53;;;;;;;;;2.25;2.25;;;;;8.94;91.85;98977.44;5068428;27;45571;-61
2022/11/23 10:59:34;;;;;;;;;7.75;6.00;;;;;9.00;90.79;98984.97;5063780;27;45556;-60
2022/11/23 11:02:16;;;;;;;;;9.25;9.00;;;;;9.06;91.28;98984.50;5065693;28;46151;-61
2022/11/23 11:04:42;;;;;;;;;3.00;3.00;;;;;9.07;90.80;98980.03;5073051;28;45257;-60
2022/11/23 11:07:29;;;;;;;;;3.50;3.50;;;;;9.07;90.57;98974.72;5074984;28;45331;-65
2022/11/23 11:09:57;;;;;;;;;5.25;3.00;;;;;9.12;90.83;98965.47;5061612;28;45543;-62
2022/11/23 11:12:24;;;;;;;;;5.50;3.00;;;;;9.30;90.60;98978.28;5076409;28;46676;-66
2022/11/23 11:15:01;;;;;;;;;3.00;3.00;;;;;9.41;90.12;98983.63;5056461;28;45304;-59
2022/11/23 11:17:34;;;;;;;;;4.00;2.75;;;;;9.41;90.42;98968.53;5055288;28;45446;-60
2022/11/23 11:20:27;;;;;;;;;3.50;3.50;;;;;9.57;89.20;98993.91;5055086;28;45637;-60
2022/11/23 11:22:54;;;;;;;;;2.75;2.75;;;;;9.56;89.74;98994.84;5051554;28;46397;-60
2022/11/23 11:25:26;;;;;;;;;3.00;3.00;;;;;9.57;90.03;98993.91;5071143;28;45220;-59
2022/11/23 11:27:52;;;;;;;;;5.00;4.50;;;;;9.62;90.29;99005.00;5061370;28;45556;-62
2022/11/23 11:30:23;;;;;;;;;2.00;2.00;;;;;9.61;89.83;99006.78;5075891;28;45501;-63
2022/11/23 11:33:05;;;;;;;;;6.00;6.00;;;;;9.64;89.96;99000.44;5074446;28;45337;-60
2022/11/23 11:35:38;;;;;;;;;5.00;1.00;;;;;9.71;90.61;99009.59;5022710;27;1468228;-60
2022/11/23 11:38:28;;;;;;;;;6.00;6.00;;;;;9.76;90.28;99023.34;5075977;28;45418;-60
2022/11/23 11:40:59;;;;;;;;;1.25;1.25;;;;;9.85;90.33;99030.59;5077771;28;45593;-62
2022/11/23 11:43:28;;;;;;;;;5.00;4.00;;;;;9.91;89.93;99035.44;5057651;27;46617;-60
2022/11/23 11:46:01;;;;;;;;;3.50;3.00;;;;;9.99;89.87;99038.34;5069841;27;46960;-59
2022/11/23 11:48:33;;;;;;;;;6.50;5.50;;;;;10.11;90.77;99035.69;5069384;28;45511;-60